Time;durP1;ratioP1;P1;durP2;ratioP2;P2;SDS_P1;SDS_P2;PMS_P1;PMS_P2;Temp;Humidity;BMP_temperature;BMP_pressure;BME280_temperature;BME280_humidity;BME280_pressure;Samples;Min_cycle;Max_cycle;Signal;HPM_P1;HPM_P2
2022/06/10 00:01:37;;;;;;;;;;;17.30;99.90;;;;;;5098055;28;20376;-81
2022/06/10 00:04:03;;;;;;;;;;;17.20;99.90;;;;;;5116522;28;19908;-82
2022/06/10 00:06:29;;;;;;;;;;;17.10;99.90;;;;;;5116710;28;19907;-81
2022/06/10 00:08:54;;;;;;;;;;;17.20;99.90;;;;;;5097975;28;19908;-81
2022/06/10 00:11:20;;;;;;;;;;;17.30;99.90;;;;;;5116130;28;19908;-81
2022/06/10 00:13:46;;;;;;;;;;;17.30;99.90;;;;;;5116191;28;19908;-81
2022/06/10 00:16:12;;;;;;;;;;;17.30;99.90;;;;;;5116095;28;19912;-81
2022/06/10 00:18:38;;;;;;;;;;;17.30;99.90;;;;;;5116206;28;20006;-81
2022/06/10 00:21:05;;;;;;;;;;;17.30;99.90;;;;;;5116060;28;19958;-82
2022/06/10 00:23:31;;;;;;;;;;;17.30;99.90;;;;;;5115878;28;20273;-82
2022/06/10 00:25:57;;;;;;;;;;;17.30;99.90;;;;;;5097632;28;19908;-81
2022/06/10 00:28:22;;;;;;;;;;;17.40;99.90;;;;;;5116185;28;19912;-81
2022/06/10 00:30:48;;;;;;;;;;;17.40;99.90;;;;;;5115602;28;19907;-82
2022/06/10 00:33:13;;;;;;;;;;;17.40;99.90;;;;;;5115822;28;19907;-81
2022/06/10 00:35:40;;;;;;;;;;;17.50;99.90;;;;;;5115807;28;19961;-82
2022/06/10 00:38:05;;;;;;;;;;;17.50;99.90;;;;;;5097388;28;19926;-81
2022/06/10 00:40:33;;;;;;;;;;;17.50;99.90;;;;;;5115585;28;19907;-81
2022/06/10 00:42:59;;;;;;;;;;;17.30;99.90;;;;;;5115566;28;20367;-82
2022/06/10 00:45:43;;;;;;;;;;;17.20;99.90;;;;;;5115554;28;19933;-81
2022/06/10 00:48:10;;;;;;;;;;;17.20;99.90;;;;;;5114768;28;19907;-81
2022/06/10 00:50:36;;;;;;;;;;;17.40;99.90;;;;;;5115500;28;20324;-81
2022/06/10 00:53:04;;;;;;;;;;;17.30;99.90;;;;;;5115813;28;20003;-81
2022/06/10 00:55:30;;;;;;;;;;;17.10;99.90;;;;;;5115285;28;19907;-81
2022/06/10 00:58:01;;;;;;;;;;;17.10;99.90;;;;;;5096821;28;19912;-81
2022/06/10 01:00:28;;;;;;;;;;;17.10;99.90;;;;;;5115303;28;19907;-81
2022/06/10 01:02:53;;;;;;;;;;;17.20;99.90;;;;;;5096913;28;19963;-81
2022/06/10 01:05:22;;;;;;;;;;;17.10;99.90;;;;;;5115201;28;20372;-82
2022/06/10 01:08:14;;;;;;;;;;;16.90;99.90;;;;;;5096611;28;19914;-81
2022/06/10 01:10:46;;;;;;;;;;;17.10;99.90;;;;;;5109841;28;19973;-81
2022/06/10 01:13:11;;;;;;;;;;;17.00;99.90;;;;;;5114851;28;19908;-81
2022/06/10 01:15:57;;;;;;;;;;;17.10;99.90;;;;;;5114899;28;19908;-81
2022/06/10 01:18:41;;;;;;;;;;;17.00;99.90;;;;;;5078860;28;19948;-81
2022/06/10 01:21:06;;;;;;;;;;;17.10;99.90;;;;;;5114957;28;19908;-81
2022/06/10 01:23:38;;;;;;;;;;;17.10;99.90;;;;;;5114829;28;19916;-81
2022/06/10 01:26:22;;;;;;;;;;;16.90;99.90;;;;;;5096412;28;20324;-81
2022/06/10 01:28:53;;;;;;;;;;;16.80;99.90;;;;;;5114734;28;19956;-81
2022/06/10 01:31:33;;;;;;;;;;;16.70;99.90;;;;;;5096140;28;19919;-81
2022/06/10 01:34:28;;;;;;;;;;;17.10;99.90;;;;;;5114688;28;19908;-81
2022/06/10 01:37:09;;;;;;;;;;;17.20;99.90;;;;;;5024758;28;20362;-81
2022/06/10 01:39:58;;;;;;;;;;;17.10;99.90;;;;;;5114705;28;19968;-81
2022/06/10 01:42:36;;;;;;;;;;;17.00;99.90;;;;;;5114647;28;19908;-81
2022/06/10 01:45:04;;;;;;;;;;;17.00;99.90;;;;;;5114702;28;19908;-81
2022/06/10 01:47:38;;;;;;;;;;;17.20;99.90;;;;;;5114241;28;19956;-81
2022/06/10 01:50:07;;;;;;;;;;;17.30;99.90;;;;;;5114724;28;19923;-82
2022/06/10 01:52:42;;;;;;;;;;;17.10;99.90;;;;;;5114297;28;19954;-82
2022/06/10 01:55:10;;;;;;;;;;;16.90;99.90;;;;;;5114519;28;19907;-81
2022/06/10 01:57:42;;;;;;;;;;;17.00;99.90;;;;;;5095859;28;20004;-81
2022/06/10 02:00:13;;;;;;;;;;;17.00;99.90;;;;;;5116522;28;20021;-81
2022/06/10 02:02:41;;;;;;;;;;;17.00;99.90;;;;;;5118428;28;19951;-81
2022/06/10 02:05:10;;;;;;;;;;;17.00;99.90;;;;;;5100092;28;19908;-81
2022/06/10 02:07:43;;;;;;;;;;;17.00;99.90;;;;;;5118272;28;20368;-82
2022/06/10 02:10:31;;;;;;;;;;;16.90;99.90;;;;;;5118433;28;19973;-81
2022/06/10 02:12:59;;;;;;;;;;;17.00;99.90;;;;;;5104291;28;20314;-81
2022/06/10 02:15:34;;;;;;;;;;;17.10;99.90;;;;;;5118029;28;20425;-81
2022/06/10 02:18:03;;;;;;;;;;;17.00;99.90;;;;;;5118088;28;19943;-81
2022/06/10 02:20:30;;;;;;;;;;;17.10;99.90;;;;;;5118500;28;19998;-81
2022/06/10 02:22:57;;;;;;;;;;;17.10;99.90;;;;;;5117941;28;19908;-82
2022/06/10 02:25:30;;;;;;;;;;;17.20;99.90;;;;;;5099553;28;19908;-81
2022/06/10 02:27:58;;;;;;;;;;;17.20;99.90;;;;;;5117819;28;20422;-81
2022/06/10 02:30:43;;;;;;;;;;;17.20;99.90;;;;;;5117842;28;19998;-81
2022/06/10 02:33:09;;;;;;;;;;;17.20;99.90;;;;;;5099197;28;20279;-81
2022/06/10 02:35:48;;;;;;;;;;;17.00;99.90;;;;;;5099437;28;19908;-81
2022/06/10 02:38:19;;;;;;;;;;;17.00;99.90;;;;;;5117470;28;19933;-81
2022/06/10 02:41:00;;;;;;;;;;;17.10;99.90;;;;;;5098928;28;19911;-81
2022/06/10 02:43:48;;;;;;;;;;;17.10;99.90;;;;;;5117499;28;20433;-81
2022/06/10 02:46:18;;;;;;;;;;;17.00;99.90;;;;;;5098936;28;19912;-82
2022/06/10 02:48:49;;;;;;;;;;;17.00;99.90;;;;;;5117330;28;19907;-81
2022/06/10 02:51:16;;;;;;;;;;;17.00;99.90;;;;;;5117231;28;20421;-81
2022/06/10 02:53:42;;;;;;;;;;;17.10;99.90;;;;;;5117434;28;20375;-82
2022/06/10 02:56:15;;;;;;;;;;;17.00;99.90;;;;;;5117288;28;19914;-81
2022/06/10 03:01:40;;;;;;;;;;;17.10;99.90;;;;;;5116899;28;19915;-81
2022/06/10 03:04:13;;;;;;;;;;;17.00;99.90;;;;;;5098686;28;19914;-81
2022/06/10 03:06:41;;;;;;;;;;;17.00;99.90;;;;;;5116983;28;20364;-81
2022/06/10 03:09:17;;;;;;;;;;;17.30;99.90;;;;;;5117102;28;20360;-81
2022/06/10 03:11:52;;;;;;;;;;;17.20;99.90;;;;;;5097864;28;19918;-81
2022/06/10 03:14:26;;;;;;;;;;;17.20;99.90;;;;;;5117039;28;19915;-81
2022/06/10 03:16:52;;;;;;;;;;;17.10;99.90;;;;;;5117004;28;20450;-82
2022/06/10 03:19:20;;;;;;;;;;;17.10;99.90;;;;;;5116683;28;20010;-81
2022/06/10 03:22:01;;;;;;;;;;;17.00;99.90;;;;;;5116721;28;19907;-81
2022/06/10 03:24:36;;;;;;;;;;;16.80;99.90;;;;;;5098259;28;20326;-81
2022/06/10 03:27:07;;;;;;;;;;;16.80;99.90;;;;;;5116657;28;20352;-82
2022/06/10 03:29:37;;;;;;;;;;;16.60;99.90;;;;;;5116514;28;19912;-81
2022/06/10 03:32:11;;;;;;;;;;;16.80;99.90;;;;;;5116641;28;19912;-81
2022/06/10 03:34:45;;;;;;;;;;;16.70;99.90;;;;;;5116701;28;20356;-81
2022/06/10 03:37:11;;;;;;;;;;;16.70;99.90;;;;;;5116686;28;19908;-81
2022/06/10 03:39:39;;;;;;;;;;;16.70;99.90;;;;;;5116317;28;19908;-81
2022/06/10 03:42:09;;;;;;;;;;;16.60;99.90;;;;;;5116635;28;19915;-81
2022/06/10 03:44:35;;;;;;;;;;;16.60;99.90;;;;;;5116438;28;20407;-81
2022/06/10 03:47:02;;;;;;;;;;;16.70;99.90;;;;;;5116466;28;20291;-81
2022/06/10 03:49:31;;;;;;;;;;;16.60;99.90;;;;;;5116498;28;20279;-81
2022/06/10 03:51:57;;;;;;;;;;;16.60;99.90;;;;;;5117029;28;19947;-81
2022/06/10 03:54:23;;;;;;;;;;;16.60;99.90;;;;;;5116612;28;19914;-81
2022/06/10 03:56:51;;;;;;;;;;;16.80;99.90;;;;;;5116857;28;19908;-81
2022/06/10 03:59:18;;;;;;;;;;;16.80;99.90;;;;;;5116159;28;19918;-81
2022/06/10 04:01:44;;;;;;;;;;;16.90;99.90;;;;;;5116451;28;19990;-81
2022/06/10 04:04:09;;;;;;;;;;;16.90;99.90;;;;;;5116295;28;19950;-81
2022/06/10 04:06:35;;;;;;;;;;;17.00;99.90;;;;;;5116208;28;19908;-81
2022/06/10 04:09:00;;;;;;;;;;;16.80;99.90;;;;;;5115832;28;20371;-81
2022/06/10 04:11:26;;;;;;;;;;;16.90;99.90;;;;;;5115628;28;19958;-81
2022/06/10 04:13:51;;;;;;;;;;;17.00;99.90;;;;;;5115639;28;19911;-81
2022/06/10 04:16:17;;;;;;;;;;;16.80;99.90;;;;;;5115621;28;19908;-81
2022/06/10 04:18:43;;;;;;;;;;;16.90;99.90;;;;;;5115412;28;20432;-81
2022/06/10 04:21:08;;;;;;;;;;;16.90;99.90;;;;;;5115396;28;19931;-81
2022/06/10 04:23:34;;;;;;;;;;;17.10;99.90;;;;;;5114586;28;19957;-81
2022/06/10 04:25:59;;;;;;;;;;;17.20;99.90;;;;;;5115760;28;19908;-81
2022/06/10 04:28:25;;;;;;;;;;;17.30;99.90;;;;;;5115593;28;19907;-82
2022/06/10 04:30:51;;;;;;;;;;;17.40;99.90;;;;;;5115201;28;19908;-81
2022/06/10 04:33:18;;;;;;;;;;;17.50;99.90;;;;;;5115187;28;19916;-81
2022/06/10 04:35:45;;;;;;;;;;;17.30;99.90;;;;;;5115137;28;19915;-81
2022/06/10 04:38:15;;;;;;;;;;;17.20;99.90;;;;;;5114976;28;19965;-81
2022/06/10 04:40:40;;;;;;;;;;;17.20;99.90;;;;;;5114995;28;20373;-81
2022/06/10 04:43:06;;;;;;;;;;;17.30;99.90;;;;;;5115258;28;19908;-81
2022/06/10 04:45:34;;;;;;;;;;;17.40;99.90;;;;;;5114939;28;19915;-81
2022/06/10 04:48:00;;;;;;;;;;;17.40;99.90;;;;;;5114879;28;20326;-81
2022/06/10 04:50:26;;;;;;;;;;;17.60;99.90;;;;;;5115223;28;19908;-81
2022/06/10 04:52:52;;;;;;;;;;;17.70;99.90;;;;;;5114963;28;20319;-81
2022/06/10 04:55:18;;;;;;;;;;;17.80;99.90;;;;;;5114884;28;19908;-82
2022/06/10 04:57:44;;;;;;;;;;;17.60;99.90;;;;;;5114713;28;19922;-81
2022/06/10 05:00:13;;;;;;;;;;;17.70;99.90;;;;;;5114702;28;19908;-81
2022/06/10 05:02:39;;;;;;;;;;;17.70;99.90;;;;;;5114583;28;19915;-81
2022/06/10 05:05:07;;;;;;;;;;;17.40;99.90;;;;;;5114728;28;19908;-81
2022/06/10 05:07:32;;;;;;;;;;;17.50;99.90;;;;;;5114559;28;19912;-81
2022/06/10 05:09:58;;;;;;;;;;;17.60;99.90;;;;;;5114490;28;19968;-81
2022/06/10 05:12:23;;;;;;;;;;;17.60;99.90;;;;;;5114474;28;19908;-81
2022/06/10 05:14:49;;;;;;;;;;;17.50;99.90;;;;;;5114736;28;20370;-81
2022/06/10 05:17:15;;;;;;;;;;;17.60;99.90;;;;;;5114507;28;19908;-81
2022/06/10 05:19:40;;;;;;;;;;;17.70;99.90;;;;;;5114326;28;20280;-82
2022/06/10 05:22:06;;;;;;;;;;;17.70;99.90;;;;;;5114496;28;19995;-81
2022/06/10 05:24:32;;;;;;;;;;;17.80;99.90;;;;;;5114233;28;19908;-81
2022/06/10 05:26:57;;;;;;;;;;;17.70;99.90;;;;;;5114627;28;19915;-82
2022/06/10 05:29:23;;;;;;;;;;;17.70;99.90;;;;;;5114206;28;19908;-82
2022/06/10 05:31:48;;;;;;;;;;;18.00;99.90;;;;;;5114241;28;19908;-81
2022/06/10 05:36:58;;;;;;;;;;;18.00;99.90;;;;;;5114033;28;20006;-82
2022/06/10 05:39:23;;;;;;;;;;;18.20;99.90;;;;;;5113507;28;20372;-82
2022/06/10 05:42:08;;;;;;;;;;;18.10;99.90;;;;;;5113983;28;19915;-82
2022/06/10 05:44:35;;;;;;;;;;;18.30;99.90;;;;;;5095482;28;19907;-82
2022/06/10 05:47:01;;;;;;;;;;;18.50;99.90;;;;;;5095771;28;20326;-81
2022/06/10 05:49:28;;;;;;;;;;;18.60;99.90;;;;;;5113948;28;19908;-81
2022/06/10 05:51:53;;;;;;;;;;;18.60;99.90;;;;;;5095733;28;19915;-82
2022/06/10 05:54:19;;;;;;;;;;;18.60;99.90;;;;;;5113884;28;19912;-82
2022/06/10 05:56:45;;;;;;;;;;;18.70;99.90;;;;;;5114065;28;19908;-82
2022/06/10 05:59:11;;;;;;;;;;;19.00;99.90;;;;;;5113781;28;19969;-82
2022/06/10 06:01:37;;;;;;;;;;;19.00;99.90;;;;;;5095678;28;19955;-82
2022/06/10 06:04:03;;;;;;;;;;;18.80;99.90;;;;;;5113862;28;20379;-82
2022/06/10 06:06:29;;;;;;;;;;;18.90;99.90;;;;;;5114019;28;19953;-82
2022/06/10 06:08:54;;;;;;;;;;;19.00;99.90;;;;;;5095360;28;19915;-82
2022/06/10 06:11:20;;;;;;;;;;;19.20;99.90;;;;;;5113791;28;20407;-82
2022/06/10 06:13:45;;;;;;;;;;;19.20;99.90;;;;;;5113821;28;19907;-82
2022/06/10 06:16:16;;;;;;;;;;;19.40;99.90;;;;;;5114190;28;19907;-82
2022/06/10 06:18:42;;;;;;;;;;;19.60;99.90;;;;;;5113727;28;20056;-82
2022/06/10 06:21:08;;;;;;;;;;;19.60;99.90;;;;;;5113866;28;19943;-82
2022/06/10 06:23:33;;;;;;;;;;;19.70;99.90;;;;;;5113763;28;20374;-82
2022/06/10 06:25:59;;;;;;;;;;;19.70;99.90;;;;;;5113691;28;19907;-82
2022/06/10 06:28:24;;;;;;;;;;;19.70;99.90;;;;;;5113892;28;19908;-82
2022/06/10 06:30:50;;;;;;;;;;;19.60;99.90;;;;;;5113728;28;19907;-82
2022/06/10 06:33:16;;;;;;;;;;;19.60;99.90;;;;;;5113352;28;19907;-82
2022/06/10 06:35:44;;;;;;;;;;;19.70;99.90;;;;;;5114614;28;19914;-81
2022/06/10 06:38:10;;;;;;;;;;;20.00;99.90;;;;;;5091541;28;19928;-82
2022/06/10 06:40:36;;;;;;;;;;;20.20;99.90;;;;;;5091957;28;19908;-82
2022/06/10 06:43:01;;;;;;;;;;;20.20;99.90;;;;;;5093178;28;19908;-82
2022/06/10 06:45:27;;;;;;;;;;;20.40;99.90;;;;;;5094207;28;20261;-82
2022/06/10 06:47:53;;;;;;;;;;;20.30;99.90;;;;;;5096846;28;19927;-82
2022/06/10 06:50:21;;;;;;;;;;;20.00;99.90;;;;;;5096801;28;19912;-82
2022/06/10 06:52:46;;;;;;;;;;;20.00;99.90;;;;;;5096907;28;20383;-82
2022/06/10 06:55:12;;;;;;;;;;;20.20;99.90;;;;;;5096821;28;19914;-82
2022/06/10 06:57:38;;;;;;;;;;;20.10;99.90;;;;;;5096871;28;19915;-82
2022/06/10 07:00:06;;;;;;;;;;;20.00;99.90;;;;;;5096522;28;19908;-82
2022/06/10 07:02:32;;;;;;;;;;;20.30;99.90;;;;;;5096536;28;19908;-82
2022/06/10 07:04:58;;;;;;;;;;;20.30;99.90;;;;;;5096702;28;20296;-82
2022/06/10 07:07:24;;;;;;;;;;;20.40;99.90;;;;;;5096724;28;19915;-82
2022/06/10 07:09:50;;;;;;;;;;;20.40;99.90;;;;;;5095162;28;19912;-82
2022/06/10 07:12:15;;;;;;;;;;;20.30;99.90;;;;;;5096315;28;19915;-82
2022/06/10 07:14:41;;;;;;;;;;;20.40;99.90;;;;;;5096315;28;19916;-82
2022/06/10 07:17:07;;;;;;;;;;;21.00;99.90;;;;;;5096532;28;19908;-82
2022/06/10 07:19:32;;;;;;;;;;;21.20;99.90;;;;;;5096256;28;19946;-82
2022/06/10 07:21:58;;;;;;;;;;;21.60;99.90;;;;;;5096402;28;19915;-82
2022/06/10 07:24:23;;;;;;;;;;;21.70;99.90;;;;;;5096132;28;19908;-82
2022/06/10 07:26:49;;;;;;;;;;;21.60;99.90;;;;;;5096102;28;20407;-83
2022/06/10 07:29:16;;;;;;;;;;;21.80;99.90;;;;;;5096165;28;19909;-83
2022/06/10 07:31:41;;;;;;;;;;;21.60;99.90;;;;;;5096251;28;19908;-83
2022/06/10 07:34:07;;;;;;;;;;;21.70;99.90;;;;;;5096065;28;19957;-82
2022/06/10 07:36:33;;;;;;;;;;;22.00;99.90;;;;;;5096038;28;19951;-82
2022/06/10 07:38:59;;;;;;;;;;;21.60;99.90;;;;;;5111561;28;20012;-83
2022/06/10 07:44:30;;;;;;;;;;;21.40;99.90;;;;;;5013676;28;20048;-83
2022/06/10 07:46:57;;;;;;;;;;;21.30;99.90;;;;;;5013164;28;19909;-82
2022/06/10 07:49:23;;;;;;;;;;;21.00;99.90;;;;;;5053126;28;19912;-82
2022/06/10 07:51:49;;;;;;;;;;;20.80;99.90;;;;;;5094894;28;19915;-82
2022/06/10 07:54:15;;;;;;;;;;;20.50;99.90;;;;;;5095336;28;19908;-82
2022/06/10 07:56:41;;;;;;;;;;;20.50;99.90;;;;;;5095147;28;19909;-83
2022/06/10 07:59:07;;;;;;;;;;;20.70;99.90;;;;;;5095250;28;19926;-82
2022/06/10 08:01:33;;;;;;;;;;;21.10;99.90;;;;;;5095172;28;19912;-82
2022/06/10 08:03:59;;;;;;;;;;;21.30;99.90;;;;;;5076402;28;19914;-82
2022/06/10 08:06:26;;;;;;;;;;;21.60;99.90;;;;;;5095059;28;19995;-82
2022/06/10 08:08:51;;;;;;;;;;;21.40;99.90;;;;;;5094923;28;19908;-82
2022/06/10 08:11:17;;;;;;;;;;;21.20;99.90;;;;;;5094977;28;20003;-82
2022/06/10 08:13:43;;;;;;;;;;;21.20;99.90;;;;;;5110176;28;20333;-83
2022/06/10 08:16:09;;;;;;;;;;;21.50;99.90;;;;;;5115413;28;19960;-82
2022/06/10 08:18:36;;;;;;;;;;;22.10;99.90;;;;;;5115315;28;19912;-83
2022/06/10 08:23:46;;;;;;;;;;;24.20;99.90;;;;;;5114894;28;19914;-83
2022/06/10 08:26:12;;;;;;;;;;;23.80;99.90;;;;;;5114993;28;20283;-83
2022/06/10 08:28:39;;;;;;;;;;;24.40;99.90;;;;;;5115057;28;19995;-83
2022/06/10 08:31:04;;;;;;;;;;;23.80;99.90;;;;;;5114972;28;19915;-83
2022/06/10 08:33:30;;;;;;;;;;;23.00;99.90;;;;;;5114523;28;19908;-82
2022/06/10 08:35:57;;;;;;;;;;;22.60;99.90;;;;;;5115011;28;20003;-83
2022/06/10 08:38:22;;;;;;;;;;;22.50;99.90;;;;;;5114543;28;19919;-82
2022/06/10 08:40:55;;;;;;;;;;;22.10;99.90;;;;;;5115093;28;19915;-83
2022/06/10 08:43:39;;;;;;;;;;;22.30;99.90;;;;;;5115113;28;19908;-82
2022/06/10 08:46:17;;;;;;;;;;;22.10;99.90;;;;;;5115034;28;19908;-82
2022/06/10 08:49:01;;;;;;;;;;;22.70;99.90;;;;;;5096407;28;19934;-83
2022/06/10 08:51:32;;;;;;;;;;;23.60;99.90;;;;;;5115244;28;19907;-82
2022/06/10 08:54:13;;;;;;;;;;;24.20;99.90;;;;;;5114913;28;19915;-83
2022/06/10 08:56:40;;;;;;;;;;;24.30;99.90;;;;;;5115064;28;19914;-83
2022/06/10 08:59:09;;;;;;;;;;;25.60;99.90;;;;;;5096401;28;19915;-83
2022/06/10 09:01:43;;;;;;;;;;;25.60;98.50;;;;;;5115000;28;19915;-83
2022/06/10 09:04:29;;;;;;;;;;;24.80;99.80;;;;;;5114641;28;19995;-82
2022/06/10 09:06:57;;;;;;;;;;;23.70;99.90;;;;;;5115231;28;19915;-83
2022/06/10 09:09:26;;;;;;;;;;;23.00;99.90;;;;;;5114282;28;19911;-83
2022/06/10 09:11:56;;;;;;;;;;;22.50;99.90;;;;;;5114451;28;19915;-82
2022/06/10 09:14:23;;;;;;;;;;;22.20;99.90;;;;;;5096887;28;20338;-83
2022/06/10 09:17:11;;;;;;;;;;;22.70;99.90;;;;;;5114796;28;19915;-83
2022/06/10 09:19:55;;;;;;;;;;;23.00;99.90;;;;;;5114307;28;20359;-82
2022/06/10 09:22:36;;;;;;;;;;;23.50;99.90;;;;;;5114415;28;19933;-83
2022/06/10 09:25:10;;;;;;;;;;;24.10;99.90;;;;;;5114757;28;20332;-83
2022/06/10 09:27:38;;;;;;;;;;;24.90;99.90;;;;;;5114337;28;19943;-83
2022/06/10 09:30:06;;;;;;;;;;;26.30;98.20;;;;;;5114369;28;19907;-83
2022/06/10 09:32:47;;;;;;;;;;;25.90;95.60;;;;;;5114164;28;19983;-83
2022/06/10 09:35:18;;;;;;;;;;;24.70;98.90;;;;;;5114383;28;19915;-83
2022/06/10 09:37:53;;;;;;;;;;;23.50;99.90;;;;;;5095728;28;19959;-83
2022/06/10 09:40:38;;;;;;;;;;;23.10;99.90;;;;;;5114149;28;19990;-83
2022/06/10 09:43:07;;;;;;;;;;;22.90;99.90;;;;;;5113596;28;19908;-83
2022/06/10 09:45:49;;;;;;;;;;;22.50;99.90;;;;;;5095819;28;19931;-83
2022/06/10 09:48:17;;;;;;;;;;;22.80;99.90;;;;;;5114089;28;19943;-82
2022/06/10 09:51:00;;;;;;;;;;;22.70;99.90;;;;;;5095746;28;19911;-83
2022/06/10 09:53:48;;;;;;;;;;;22.70;99.90;;;;;;5114647;28;19908;-83
2022/06/10 09:56:17;;;;;;;;;;;23.30;99.90;;;;;;5100340;28;19952;-83
2022/06/10 09:58:44;;;;;;;;;;;23.90;99.90;;;;;;5113752;28;20364;-83
2022/06/10 10:01:21;;;;;;;;;;;24.10;99.90;;;;;;5095699;28;19907;-82
2022/06/10 10:04:05;;;;;;;;;;;23.80;99.90;;;;;;5114631;28;20355;-83
2022/06/10 10:06:44;;;;;;;;;;;23.70;99.90;;;;;;5114225;28;19908;-83
2022/06/10 10:09:28;;;;;;;;;;;23.80;99.90;;;;;;5113919;28;20329;-83
2022/06/10 10:11:59;;;;;;;;;;;23.70;99.90;;;;;;5113820;28;19911;-83
2022/06/10 10:14:34;;;;;;;;;;;23.40;99.90;;;;;;5114447;28;19915;-83
2022/06/10 10:16:59;;;;;;;;;;;22.90;99.90;;;;;;5114102;28;19908;-82
2022/06/10 10:19:40;;;;;;;;;;;22.60;99.90;;;;;;5113805;28;19937;-83
2022/06/10 10:22:12;;;;;;;;;;;22.30;99.90;;;;;;5116997;28;19915;-83
2022/06/10 10:24:39;;;;;;;;;;;22.10;99.90;;;;;;5118160;28;19931;-82
2022/06/10 10:27:09;;;;;;;;;;;22.00;99.90;;;;;;5118106;28;19908;-82
2022/06/10 10:29:38;;;;;;;;;;;21.70;99.90;;;;;;5117891;28;19923;-82
2022/06/10 10:32:08;;;;;;;;;;;21.70;99.90;;;;;;5117913;28;19915;-82
2022/06/10 10:34:36;;;;;;;;;;;21.90;99.90;;;;;;5117759;28;19908;-82
2022/06/10 10:37:04;;;;;;;;;;;22.30;99.90;;;;;;5099457;28;19908;-82
2022/06/10 10:39:32;;;;;;;;;;;22.70;99.90;;;;;;5117632;28;19942;-83
2022/06/10 10:42:06;;;;;;;;;;;23.20;99.90;;;;;;5118163;28;19914;-83
2022/06/10 10:44:32;;;;;;;;;;;23.20;99.90;;;;;;5118532;28;19915;-83
2022/06/10 10:47:09;;;;;;;;;;;23.40;99.90;;;;;;5118156;28;19908;-83
2022/06/10 10:49:54;;;;;;;;;;;24.00;99.90;;;;;;5118449;28;19907;-83
2022/06/10 10:52:23;;;;;;;;;;;24.40;99.90;;;;;;5118562;28;19908;-83
2022/06/10 10:54:52;;;;;;;;;;;24.30;99.90;;;;;;5118528;28;19908;-82
2022/06/10 10:57:26;;;;;;;;;;;24.00;99.90;;;;;;5119706;28;19943;-82
2022/06/10 11:00:14;;;;;;;;;;;23.60;99.90;;;;;;5119173;28;19911;-82
2022/06/10 11:02:48;;;;;;;;;;;23.40;99.90;;;;;;5105185;28;20443;-81
2022/06/10 11:05:20;;;;;;;;;;;23.60;99.90;;;;;;5118680;28;19912;-83
2022/06/10 11:07:46;;;;;;;;;;;23.30;99.90;;;;;;5119416;28;20383;-82
2022/06/10 11:10:17;;;;;;;;;;;23.30;99.90;;;;;;5118253;28;19908;-83
2022/06/10 11:12:43;;;;;;;;;;;23.30;99.90;;;;;;5117455;28;19912;-83
2022/06/10 11:15:16;;;;;;;;;;;23.90;99.90;;;;;;5117348;28;19915;-83
2022/06/10 11:17:42;;;;;;;;;;;25.10;99.90;;;;;;5098373;28;19908;-83
2022/06/10 11:20:14;;;;;;;;;;;27.00;99.50;;;;;;5116730;28;19914;-83
2022/06/10 11:22:39;;;;;;;;;;;26.50;98.90;;;;;;5116633;28;19914;-83
2022/06/10 11:25:17;;;;;;;;;;;26.50;98.70;;;;;;5105052;28;20002;-83
2022/06/10 11:27:48;;;;;;;;;;;25.80;98.90;;;;;;5102176;28;19966;-83
2022/06/10 11:30:14;;;;;;;;;;;25.00;99.90;;;;;;5088696;28;20018;-83
2022/06/10 11:32:49;;;;;;;;;;;24.00;99.90;;;;;;5105822;28;19943;-83
2022/06/10 11:35:32;;;;;;;;;;;23.40;99.90;;;;;;5085626;28;20097;-83
2022/06/10 11:38:05;;;;;;;;;;;23.00;99.90;;;;;;5100302;28;19927;-83
2022/06/10 11:40:36;;;;;;;;;;;22.70;99.90;;;;;;5104999;28;20262;-83
2022/06/10 11:43:22;;;;;;;;;;;22.70;99.90;;;;;;5095832;28;20424;-82
2022/06/10 11:45:54;;;;;;;;;;;22.40;99.90;;;;;;5095255;28;19908;-82
2022/06/10 11:48:22;;;;;;;;;;;22.50;99.90;;;;;;5095659;28;19998;-83
2022/06/10 11:50:53;;;;;;;;;;;23.00;99.90;;;;;;5095944;28;20002;-83
2022/06/10 11:53:30;;;;;;;;;;;23.60;99.90;;;;;;5095634;28;19912;-83
2022/06/10 11:59:42;;;;;;;;;;;24.30;99.90;;;;;;5095729;28;19908;-83
2022/06/10 12:01:31;;;;;;;;;;;25.60;99.90;;;;;;5095852;28;19923;-84
2022/06/10 12:03:56;;;;;;;;;;;26.50;97.20;;;;;;5095434;28;20419;-84
2022/06/10 12:06:25;;;;;;;;;;;26.70;96.70;;;;;;5095354;28;19947;-83
2022/06/10 12:08:56;;;;;;;;;;;26.40;96.80;;;;;;5095643;28;19908;-83
2022/06/10 12:11:27;;;;;;;;;;;25.80;96.50;;;;;;5095321;28;20261;-83
2022/06/10 12:13:59;;;;;;;;;;;24.50;99.50;;;;;;5095493;28;20403;-83
2022/06/10 12:16:26;;;;;;;;;;;24.00;99.90;;;;;;5095183;28;20284;-83
2022/06/10 12:18:52;;;;;;;;;;;23.80;99.90;;;;;;5095350;28;20291;-83
2022/06/10 12:21:19;;;;;;;;;;;23.60;99.90;;;;;;5095065;28;19908;-82
2022/06/10 12:23:47;;;;;;;;;;;23.90;99.90;;;;;;5095014;28;20296;-83
2022/06/10 12:26:12;;;;;;;;;;;24.40;99.90;;;;;;5094988;28;20422;-83
2022/06/10 12:28:41;;;;;;;;;;;24.30;99.90;;;;;;5095273;28;19908;-83
2022/06/10 12:31:15;;;;;;;;;;;24.60;99.90;;;;;;5094850;28;20381;-83
2022/06/10 12:33:54;;;;;;;;;;;24.60;99.90;;;;;;5076439;28;19930;-83
2022/06/10 12:36:24;;;;;;;;;;;25.20;99.90;;;;;;5095368;28;19922;-84
2022/06/10 12:38:51;;;;;;;;;;;26.20;96.70;;;;;;5094481;28;19967;-83
2022/06/10 12:41:31;;;;;;;;;;;26.50;94.50;;;;;;5095249;28;19908;-83
2022/06/10 12:44:01;;;;;;;;;;;27.00;93.60;;;;;;5094074;28;19908;-83
2022/06/10 12:46:50;;;;;;;;;;;27.10;93.00;;;;;;5095116;28;19998;-83
2022/06/10 12:49:25;;;;;;;;;;;27.50;92.40;;;;;;5083578;28;20284;-84
2022/06/10 12:52:13;;;;;;;;;;;27.70;91.00;;;;;;5094775;28;20280;-83
2022/06/10 12:54:39;;;;;;;;;;;27.60;90.80;;;;;;5076051;28;19908;-83
2022/06/10 12:57:23;;;;;;;;;;;27.50;91.20;;;;;;5094413;28;19931;-83
2022/06/10 12:59:49;;;;;;;;;;;27.60;90.80;;;;;;5094835;28;19912;-84
2022/06/10 13:02:53;;;;;;;;;;;27.00;91.70;;;;;;5094628;28;19915;-83
2022/06/10 13:05:21;;;;;;;;;;;26.40;92.20;;;;;;5012722;28;20370;-81
2022/06/10 13:07:49;;;;;;;;;;;26.50;92.70;;;;;;4995869;28;19910;-81
2022/06/10 13:10:23;;;;;;;;;;;26.40;92.60;;;;;;5052857;28;19909;-81
2022/06/10 13:12:50;;;;;;;;;;;26.80;92.50;;;;;;5094351;28;19915;-81
2022/06/10 13:15:26;;;;;;;;;;;27.60;91.50;;;;;;5094083;28;19908;-81
2022/06/10 13:17:54;;;;;;;;;;;27.50;91.00;;;;;;5075617;28;19908;-81
2022/06/10 13:20:20;;;;;;;;;;;27.00;90.50;;;;;;5094059;28;20002;-81
2022/06/10 13:23:06;;;;;;;;;;;27.20;91.40;;;;;;5094010;28;19908;-83
2022/06/10 13:25:32;;;;;;;;;;;27.20;90.80;;;;;;5075572;28;19908;-84
2022/06/10 13:27:58;;;;;;;;;;;26.90;90.40;;;;;;5093932;28;19912;-83
2022/06/10 13:30:24;;;;;;;;;;;26.70;90.80;;;;;;5094214;28;19913;-84
2022/06/10 13:32:52;;;;;;;;;;;26.60;90.80;;;;;;5093865;28;19909;-83
2022/06/10 13:35:26;;;;;;;;;;;26.60;90.80;;;;;;5075773;28;20428;-83
2022/06/10 13:37:57;;;;;;;;;;;27.30;90.10;;;;;;5093725;28;19969;-83
2022/06/10 13:40:25;;;;;;;;;;;27.20;89.30;;;;;;5094079;28;20484;-83
2022/06/10 13:42:53;;;;;;;;;;;27.30;90.00;;;;;;5094073;28;20013;-84
2022/06/10 13:45:19;;;;;;;;;;;26.80;90.30;;;;;;5093797;28;19909;-83
2022/06/10 13:48:06;;;;;;;;;;;26.50;90.30;;;;;;5093746;28;19915;-84
2022/06/10 13:53:06;;;;;;;;;;;25.70;92.40;;;;;;5094029;28;19957;-83
2022/06/10 13:55:35;;;;;;;;;;;25.30;93.10;;;;;;5096356;28;19939;-83
2022/06/10 13:58:03;;;;;;;;;;;25.10;94.90;;;;;;5098044;28;19915;-83
2022/06/10 14:00:30;;;;;;;;;;;25.30;94.90;;;;;;5097757;28;19908;-83
2022/06/10 14:02:57;;;;;;;;;;;25.50;95.10;;;;;;5097771;28;19931;-83
2022/06/10 14:05:25;;;;;;;;;;;25.40;95.50;;;;;;5097692;28;20026;-83
2022/06/10 14:07:52;;;;;;;;;;;25.40;94.00;;;;;;5098216;28;19908;-83
2022/06/10 14:10:23;;;;;;;;;;;25.20;94.80;;;;;;5097560;28;19988;-83
2022/06/10 14:12:57;;;;;;;;;;;25.10;95.10;;;;;;5097448;28;19915;-83
2022/06/10 14:15:26;;;;;;;;;;;24.90;96.10;;;;;;5098119;28;19924;-83
2022/06/10 14:17:53;;;;;;;;;;;24.40;96.50;;;;;;5097520;28;19914;-83
2022/06/10 14:20:21;;;;;;;;;;;24.30;96.90;;;;;;5097403;28;20372;-83
2022/06/10 14:22:47;;;;;;;;;;;24.20;98.40;;;;;;5079208;28;19908;-83
2022/06/10 14:25:13;;;;;;;;;;;24.10;98.10;;;;;;5097692;28;19912;-83
2022/06/10 14:27:43;;;;;;;;;;;24.10;97.80;;;;;;5097315;28;20486;-83
2022/06/10 14:30:20;;;;;;;;;;;24.40;97.60;;;;;;5097539;28;19908;-83
2022/06/10 14:32:50;;;;;;;;;;;25.10;96.00;;;;;;5097510;28;19908;-83
2022/06/10 14:35:29;;;;;;;;;;;25.60;95.20;;;;;;5097580;28;19915;-83
2022/06/10 14:38:02;;;;;;;;;;;25.80;94.30;;;;;;5097019;28;19920;-83
2022/06/10 14:40:28;;;;;;;;;;;25.70;94.20;;;;;;5097642;28;19908;-84
2022/06/10 14:43:02;;;;;;;;;;;25.10;95.10;;;;;;5097020;28;19912;-83
2022/06/10 14:45:36;;;;;;;;;;;24.70;96.90;;;;;;5096952;28;19915;-83
2022/06/10 14:48:08;;;;;;;;;;;24.40;97.60;;;;;;5097506;28;19908;-83
2022/06/10 14:50:35;;;;;;;;;;;24.20;98.40;;;;;;5096884;28;19951;-84